Terminal Aerodrome Forecast
Issued by NWS

Current Version | Previous Version | Text Only | Print | Product List | Glossary On
Versions: 1 2 3 4 5 6 7 8 9 10 11 12
463
FTAK31 PAJN 240526
TAFAKT
TAF
PAKT 240526Z 2406/2506 32006KT P6SM SCT035
     FM240900 32005KT P6SM VCSH BKN035 OVC050
     FM241700 34010KT P6SM VCSH BKN025 OVC035
     FM242000 34012KT P6SM VCSH SCT025 OVC035
     FM250300 32005KT P6SM SCT035 BKN050 OVC070
      AMD LTD TO CLD VIS AND WIND 2406/2415=

USA.gov is the U.S. government's official web portal to all federal, state and local government web resources and services.